sensor_id;sensor_type;location;lat;lon;timestamp;P1;durP1;ratioP1;P2;durP2;ratioP2
73132;SDS011;61320;52.008;4.530;2022-07-10T00:02:05;2.14;;;2.14;;
73132;SDS011;61320;52.008;4.530;2022-07-10T00:04:31;2.14;;;2.14;;
73132;SDS011;61320;52.008;4.530;2022-07-10T00:06:57;2.19;;;2.19;;
73132;SDS011;61320;52.008;4.530;2022-07-10T00:09:23;2.17;;;2.17;;
73132;SDS011;61320;52.008;4.530;2022-07-10T00:11:49;2.19;;;2.19;;
73132;SDS011;61320;52.008;4.530;2022-07-10T00:14:15;2.07;;;2.07;;
73132;SDS011;61320;52.008;4.530;2022-07-10T00:16:41;2.24;;;2.22;;
73132;SDS011;61320;52.008;4.530;2022-07-10T00:19:06;2.44;;;2.40;;
73132;SDS011;61320;52.008;4.530;2022-07-10T00:21:32;2.62;;;2.60;;
73132;SDS011;61320;52.008;4.530;2022-07-10T00:23:57;2.86;;;2.86;;
73132;SDS011;61320;52.008;4.530;2022-07-10T00:26:22;2.98;;;2.98;;
73132;SDS011;61320;52.008;4.530;2022-07-10T00:28:48;2.43;;;2.43;;
73132;SDS011;61320;52.008;4.530;2022-07-10T00:31:13;2.69;;;2.69;;
73132;SDS011;61320;52.008;4.530;2022-07-10T00:33:39;2.68;;;2.67;;
73132;SDS011;61320;52.008;4.530;2022-07-10T00:36:05;2.92;;;2.92;;
73132;SDS011;61320;52.008;4.530;2022-07-10T00:38:31;2.79;;;2.79;;
73132;SDS011;61320;52.008;4.530;2022-07-10T00:40:57;2.80;;;2.80;;
73132;SDS011;61320;52.008;4.530;2022-07-10T00:43:22;2.99;;;2.98;;
73132;SDS011;61320;52.008;4.530;2022-07-10T00:45:48;2.93;;;2.93;;
73132;SDS011;61320;52.008;4.530;2022-07-10T00:48:14;2.67;;;2.67;;
73132;SDS011;61320;52.008;4.530;2022-07-10T00:50:40;2.57;;;2.57;;
73132;SDS011;61320;52.008;4.530;2022-07-10T00:53:09;2.40;;;2.40;;
73132;SDS011;61320;52.008;4.530;2022-07-10T00:55:35;2.53;;;2.53;;
73132;SDS011;61320;52.008;4.530;2022-07-10T00:58:02;2.47;;;2.47;;
73132;SDS011;61320;52.008;4.530;2022-07-10T01:00:31;2.22;;;2.22;;
73132;SDS011;61320;52.008;4.530;2022-07-10T01:02:59;2.37;;;2.37;;
73132;SDS011;61320;52.008;4.530;2022-07-10T01:05:24;2.18;;;2.18;;
73132;SDS011;61320;52.008;4.530;2022-07-10T01:07:50;2.29;;;2.26;;
73132;SDS011;61320;52.008;4.530;2022-07-10T01:10:15;2.14;;;2.07;;
73132;SDS011;61320;52.008;4.530;2022-07-10T01:12:41;2.61;;;2.47;;
73132;SDS011;61320;52.008;4.530;2022-07-10T01:15:07;2.37;;;2.25;;
73132;SDS011;61320;52.008;4.530;2022-07-10T01:17:33;2.12;;;2.07;;
73132;SDS011;61320;52.008;4.530;2022-07-10T01:20:09;1.78;;;1.78;;
73132;SDS011;61320;52.008;4.530;2022-07-10T01:22:38;2.21;;;2.16;;
73132;SDS011;61320;52.008;4.530;2022-07-10T01:25:04;2.10;;;2.10;;
73132;SDS011;61320;52.008;4.530;2022-07-10T01:27:30;1.79;;;1.76;;
73132;SDS011;61320;52.008;4.530;2022-07-10T01:29:56;2.02;;;1.96;;
73132;SDS011;61320;52.008;4.530;2022-07-10T01:32:23;2.20;;;2.08;;
73132;SDS011;61320;52.008;4.530;2022-07-10T01:34:48;2.20;;;2.08;;
73132;SDS011;61320;52.008;4.530;2022-07-10T01:37:14;2.01;;;1.90;;
73132;SDS011;61320;52.008;4.530;2022-07-10T01:39:39;2.08;;;1.96;;
73132;SDS011;61320;52.008;4.530;2022-07-10T01:42:05;1.99;;;1.88;;
73132;SDS011;61320;52.008;4.530;2022-07-10T01:44:33;1.89;;;1.77;;
73132;SDS011;61320;52.008;4.530;2022-07-10T01:46:58;2.08;;;1.93;;
73132;SDS011;61320;52.008;4.530;2022-07-10T01:49:24;1.98;;;1.84;;
73132;SDS011;61320;52.008;4.530;2022-07-10T01:51:49;1.89;;;1.79;;
73132;SDS011;61320;52.008;4.530;2022-07-10T01:54:15;2.19;;;2.09;;
73132;SDS011;61320;52.008;4.530;2022-07-10T01:56:40;1.99;;;1.97;;
73132;SDS011;61320;52.008;4.530;2022-07-10T01:59:06;1.99;;;1.99;;
73132;SDS011;61320;52.008;4.530;2022-07-10T02:01:31;2.11;;;2.11;;
73132;SDS011;61320;52.008;4.530;2022-07-10T02:03:57;2.12;;;2.12;;
73132;SDS011;61320;52.008;4.530;2022-07-10T02:06:41;2.22;;;2.22;;
73132;SDS011;61320;52.008;4.530;2022-07-10T02:09:07;2.02;;;2.02;;
73132;SDS011;61320;52.008;4.530;2022-07-10T02:11:33;2.04;;;2.04;;
73132;SDS011;61320;52.008;4.530;2022-07-10T02:13:58;1.94;;;1.94;;
73132;SDS011;61320;52.008;4.530;2022-07-10T02:16:23;2.13;;;2.12;;
73132;SDS011;61320;52.008;4.530;2022-07-10T02:18:49;1.94;;;1.93;;
73132;SDS011;61320;52.008;4.530;2022-07-10T02:21:14;2.12;;;2.02;;
73132;SDS011;61320;52.008;4.530;2022-07-10T02:23:40;2.03;;;1.95;;
73132;SDS011;61320;52.008;4.530;2022-07-10T02:26:06;2.13;;;2.02;;
73132;SDS011;61320;52.008;4.530;2022-07-10T02:28:32;2.13;;;2.04;;
73132;SDS011;61320;52.008;4.530;2022-07-10T02:30:57;2.31;;;2.19;;
73132;SDS011;61320;52.008;4.530;2022-07-10T02:33:23;1.99;;;1.93;;
73132;SDS011;61320;52.008;4.530;2022-07-10T02:35:49;2.09;;;2.08;;
73132;SDS011;61320;52.008;4.530;2022-07-10T02:38:14;1.99;;;1.98;;
73132;SDS011;61320;52.008;4.530;2022-07-10T02:40:40;2.13;;;2.13;;
73132;SDS011;61320;52.008;4.530;2022-07-10T02:43:05;2.24;;;2.22;;
73132;SDS011;61320;52.008;4.530;2022-07-10T02:45:31;2.12;;;2.07;;
73132;SDS011;61320;52.008;4.530;2022-07-10T02:47:56;2.37;;;2.27;;
73132;SDS011;61320;52.008;4.530;2022-07-10T02:50:22;2.33;;;2.25;;
73132;SDS011;61320;52.008;4.530;2022-07-10T02:52:47;2.30;;;2.30;;
73132;SDS011;61320;52.008;4.530;2022-07-10T02:55:12;2.16;;;2.16;;
73132;SDS011;61320;52.008;4.530;2022-07-10T02:57:38;2.23;;;2.23;;
73132;SDS011;61320;52.008;4.530;2022-07-10T03:00:04;2.24;;;2.24;;
73132;SDS011;61320;52.008;4.530;2022-07-10T03:02:30;2.09;;;2.09;;
73132;SDS011;61320;52.008;4.530;2022-07-10T03:04:55;2.23;;;2.23;;
73132;SDS011;61320;52.008;4.530;2022-07-10T03:07:20;2.06;;;2.06;;
73132;SDS011;61320;52.008;4.530;2022-07-10T03:09:46;2.23;;;2.23;;
73132;SDS011;61320;52.008;4.530;2022-07-10T03:12:11;2.17;;;2.17;;
73132;SDS011;61320;52.008;4.530;2022-07-10T03:14:37;2.02;;;2.02;;
73132;SDS011;61320;52.008;4.530;2022-07-10T03:17:02;2.01;;;2.01;;
73132;SDS011;61320;52.008;4.530;2022-07-10T03:19:28;2.09;;;2.09;;
73132;SDS011;61320;52.008;4.530;2022-07-10T03:21:53;1.86;;;1.86;;
73132;SDS011;61320;52.008;4.530;2022-07-10T03:24:19;2.03;;;2.03;;
73132;SDS011;61320;52.008;4.530;2022-07-10T03:26:44;1.80;;;1.80;;
73132;SDS011;61320;52.008;4.530;2022-07-10T03:29:10;1.91;;;1.91;;
73132;SDS011;61320;52.008;4.530;2022-07-10T03:31:37;2.13;;;2.07;;
73132;SDS011;61320;52.008;4.530;2022-07-10T03:34:03;2.30;;;2.13;;
73132;SDS011;61320;52.008;4.530;2022-07-10T03:36:28;1.84;;;1.83;;
73132;SDS011;61320;52.008;4.530;2022-07-10T03:38:54;2.02;;;2.02;;
73132;SDS011;61320;52.008;4.530;2022-07-10T03:41:19;1.88;;;1.86;;
73132;SDS011;61320;52.008;4.530;2022-07-10T03:43:45;2.08;;;2.04;;
73132;SDS011;61320;52.008;4.530;2022-07-10T03:46:10;2.09;;;2.09;;
73132;SDS011;61320;52.008;4.530;2022-07-10T03:48:36;2.14;;;2.14;;
73132;SDS011;61320;52.008;4.530;2022-07-10T03:51:01;1.75;;;1.75;;
73132;SDS011;61320;52.008;4.530;2022-07-10T03:53:27;1.83;;;1.83;;
73132;SDS011;61320;52.008;4.530;2022-07-10T03:55:53;1.97;;;1.93;;
73132;SDS011;61320;52.008;4.530;2022-07-10T03:58:19;2.17;;;2.03;;
73132;SDS011;61320;52.008;4.530;2022-07-10T04:00:45;2.30;;;2.16;;
73132;SDS011;61320;52.008;4.530;2022-07-10T04:03:10;2.53;;;2.34;;
73132;SDS011;61320;52.008;4.530;2022-07-10T04:05:36;2.47;;;2.26;;
73132;SDS011;61320;52.008;4.530;2022-07-10T04:08:02;2.43;;;2.23;;
73132;SDS011;61320;52.008;4.530;2022-07-10T04:10:29;2.56;;;2.38;;
73132;SDS011;61320;52.008;4.530;2022-07-10T04:12:56;2.69;;;2.48;;
73132;SDS011;61320;52.008;4.530;2022-07-10T04:15:23;2.99;;;2.75;;
73132;SDS011;61320;52.008;4.530;2022-07-10T04:17:49;2.70;;;2.49;;
73132;SDS011;61320;52.008;4.530;2022-07-10T04:20:15;2.22;;;2.09;;
73132;SDS011;61320;52.008;4.530;2022-07-10T04:22:41;2.34;;;2.21;;
73132;SDS011;61320;52.008;4.530;2022-07-10T04:25:07;2.27;;;2.10;;
73132;SDS011;61320;52.008;4.530;2022-07-10T04:27:33;2.38;;;2.18;;
73132;SDS011;61320;52.008;4.530;2022-07-10T04:29:59;2.13;;;1.99;;
73132;SDS011;61320;52.008;4.530;2022-07-10T04:32:24;2.10;;;1.99;;
73132;SDS011;61320;52.008;4.530;2022-07-10T04:34:50;2.20;;;2.08;;
73132;SDS011;61320;52.008;4.530;2022-07-10T04:37:16;2.14;;;2.02;;
73132;SDS011;61320;52.008;4.530;2022-07-10T04:39:41;2.24;;;2.10;;
73132;SDS011;61320;52.008;4.530;2022-07-10T04:42:07;2.40;;;2.24;;
73132;SDS011;61320;52.008;4.530;2022-07-10T04:44:34;2.48;;;2.34;;
73132;SDS011;61320;52.008;4.530;2022-07-10T04:47:04;2.23;;;2.08;;
73132;SDS011;61320;52.008;4.530;2022-07-10T04:49:31;2.47;;;2.34;;
73132;SDS011;61320;52.008;4.530;2022-07-10T04:51:57;2.14;;;2.01;;
73132;SDS011;61320;52.008;4.530;2022-07-10T04:54:23;2.22;;;2.04;;
73132;SDS011;61320;52.008;4.530;2022-07-10T04:56:48;2.56;;;2.29;;
73132;SDS011;61320;52.008;4.530;2022-07-10T04:59:14;2.42;;;2.16;;
73132;SDS011;61320;52.008;4.530;2022-07-10T05:01:40;2.28;;;2.03;;
73132;SDS011;61320;52.008;4.530;2022-07-10T05:04:05;2.30;;;2.08;;
73132;SDS011;61320;52.008;4.530;2022-07-10T05:06:31;2.37;;;2.13;;
73132;SDS011;61320;52.008;4.530;2022-07-10T05:08:56;2.18;;;1.94;;
73132;SDS011;61320;52.008;4.530;2022-07-10T05:11:22;2.23;;;2.00;;
73132;SDS011;61320;52.008;4.530;2022-07-10T05:13:48;2.41;;;2.11;;
73132;SDS011;61320;52.008;4.530;2022-07-10T05:16:14;2.36;;;2.07;;
73132;SDS011;61320;52.008;4.530;2022-07-10T05:18:41;2.16;;;1.91;;
73132;SDS011;61320;52.008;4.530;2022-07-10T05:21:06;2.11;;;1.88;;
73132;SDS011;61320;52.008;4.530;2022-07-10T05:23:32;2.26;;;2.02;;
73132;SDS011;61320;52.008;4.530;2022-07-10T05:25:57;2.32;;;2.07;;
73132;SDS011;61320;52.008;4.530;2022-07-10T05:28:23;2.04;;;1.83;;
73132;SDS011;61320;52.008;4.530;2022-07-10T05:30:48;1.93;;;1.76;;
73132;SDS011;61320;52.008;4.530;2022-07-10T05:33:14;2.07;;;1.86;;
73132;SDS011;61320;52.008;4.530;2022-07-10T05:35:40;2.14;;;1.87;;
73132;SDS011;61320;52.008;4.530;2022-07-10T05:38:06;2.10;;;1.84;;
73132;SDS011;61320;52.008;4.530;2022-07-10T05:40:31;2.48;;;2.14;;
73132;SDS011;61320;52.008;4.530;2022-07-10T05:42:57;2.35;;;2.04;;
73132;SDS011;61320;52.008;4.530;2022-07-10T05:45:22;2.28;;;2.01;;
73132;SDS011;61320;52.008;4.530;2022-07-10T05:47:48;2.37;;;2.06;;
73132;SDS011;61320;52.008;4.530;2022-07-10T05:50:13;2.03;;;1.79;;
73132;SDS011;61320;52.008;4.530;2022-07-10T05:52:39;2.15;;;1.87;;
73132;SDS011;61320;52.008;4.530;2022-07-10T05:55:05;2.15;;;1.88;;
73132;SDS011;61320;52.008;4.530;2022-07-10T05:57:31;2.31;;;2.02;;
73132;SDS011;61320;52.008;4.530;2022-07-10T05:59:57;2.13;;;1.88;;
73132;SDS011;61320;52.008;4.530;2022-07-10T06:02:23;1.87;;;1.68;;
73132;SDS011;61320;52.008;4.530;2022-07-10T06:04:48;2.22;;;1.97;;
73132;SDS011;61320;52.008;4.530;2022-07-10T06:07:14;2.04;;;1.82;;
73132;SDS011;61320;52.008;4.530;2022-07-10T06:09:40;2.03;;;1.81;;
73132;SDS011;61320;52.008;4.530;2022-07-10T06:12:06;2.03;;;1.82;;
73132;SDS011;61320;52.008;4.530;2022-07-10T06:14:31;1.98;;;1.78;;
73132;SDS011;61320;52.008;4.530;2022-07-10T06:16:57;2.19;;;1.97;;
73132;SDS011;61320;52.008;4.530;2022-07-10T06:19:22;1.70;;;1.53;;
73132;SDS011;61320;52.008;4.530;2022-07-10T06:21:48;2.09;;;1.91;;
73132;SDS011;61320;52.008;4.530;2022-07-10T06:24:33;1.96;;;1.78;;
73132;SDS011;61320;52.008;4.530;2022-07-10T06:26:59;1.84;;;1.65;;
73132;SDS011;61320;52.008;4.530;2022-07-10T06:29:24;1.80;;;1.61;;
73132;SDS011;61320;52.008;4.530;2022-07-10T06:31:49;2.12;;;1.91;;
73132;SDS011;61320;52.008;4.530;2022-07-10T06:34:15;1.95;;;1.76;;
73132;SDS011;61320;52.008;4.530;2022-07-10T06:36:40;1.87;;;1.70;;
73132;SDS011;61320;52.008;4.530;2022-07-10T06:39:06;1.80;;;1.64;;
73132;SDS011;61320;52.008;4.530;2022-07-10T06:41:31;1.86;;;1.68;;
73132;SDS011;61320;52.008;4.530;2022-07-10T06:43:57;2.03;;;1.82;;
73132;SDS011;61320;52.008;4.530;2022-07-10T06:46:23;2.06;;;1.87;;
73132;SDS011;61320;52.008;4.530;2022-07-10T06:48:49;2.08;;;1.90;;
73132;SDS011;61320;52.008;4.530;2022-07-10T06:51:14;2.10;;;1.94;;
73132;SDS011;61320;52.008;4.530;2022-07-10T06:53:40;2.19;;;2.02;;
73132;SDS011;61320;52.008;4.530;2022-07-10T06:56:05;2.21;;;2.00;;
73132;SDS011;61320;52.008;4.530;2022-07-10T06:58:31;2.02;;;1.85;;
73132;SDS011;61320;52.008;4.530;2022-07-10T07:00:57;1.85;;;1.73;;
73132;SDS011;61320;52.008;4.530;2022-07-10T07:03:22;1.84;;;1.74;;
73132;SDS011;61320;52.008;4.530;2022-07-10T07:05:48;2.11;;;2.00;;
73132;SDS011;61320;52.008;4.530;2022-07-10T07:08:13;2.03;;;1.99;;
73132;SDS011;61320;52.008;4.530;2022-07-10T07:10:38;1.61;;;1.60;;
73132;SDS011;61320;52.008;4.530;2022-07-10T07:13:04;1.80;;;1.79;;
73132;SDS011;61320;52.008;4.530;2022-07-10T07:15:29;1.96;;;1.88;;
73132;SDS011;61320;52.008;4.530;2022-07-10T07:17:55;1.90;;;1.80;;
73132;SDS011;61320;52.008;4.530;2022-07-10T07:20:33;1.92;;;1.82;;
73132;SDS011;61320;52.008;4.530;2022-07-10T07:23:19;1.71;;;1.63;;
73132;SDS011;61320;52.008;4.530;2022-07-10T07:25:44;1.91;;;1.81;;
73132;SDS011;61320;52.008;4.530;2022-07-10T07:28:14;1.88;;;1.75;;
73132;SDS011;61320;52.008;4.530;2022-07-10T07:30:44;1.86;;;1.75;;
73132;SDS011;61320;52.008;4.530;2022-07-10T07:33:10;1.96;;;1.86;;
73132;SDS011;61320;52.008;4.530;2022-07-10T07:35:36;1.70;;;1.60;;
73132;SDS011;61320;52.008;4.530;2022-07-10T07:38:04;1.87;;;1.75;;
73132;SDS011;61320;52.008;4.530;2022-07-10T07:40:30;1.79;;;1.68;;
73132;SDS011;61320;52.008;4.530;2022-07-10T07:42:56;2.16;;;1.99;;
73132;SDS011;61320;52.008;4.530;2022-07-10T07:45:22;1.97;;;1.84;;
73132;SDS011;61320;52.008;4.530;2022-07-10T07:47:50;1.84;;;1.71;;
73132;SDS011;61320;52.008;4.530;2022-07-10T07:50:17;1.84;;;1.71;;
73132;SDS011;61320;52.008;4.530;2022-07-10T07:52:44;1.95;;;1.82;;
73132;SDS011;61320;52.008;4.530;2022-07-10T07:55:11;1.89;;;1.76;;
73132;SDS011;61320;52.008;4.530;2022-07-10T07:57:41;1.66;;;1.61;;
73132;SDS011;61320;52.008;4.530;2022-07-10T08:00:10;1.76;;;1.72;;
73132;SDS011;61320;52.008;4.530;2022-07-10T08:02:38;1.71;;;1.71;;
73132;SDS011;61320;52.008;4.530;2022-07-10T08:05:05;1.49;;;1.49;;
73132;SDS011;61320;52.008;4.530;2022-07-10T08:10:19;1.61;;;1.61;;
73132;SDS011;61320;52.008;4.530;2022-07-10T08:12:47;1.55;;;1.55;;
73132;SDS011;61320;52.008;4.530;2022-07-10T08:15:14;1.44;;;1.44;;
73132;SDS011;61320;52.008;4.530;2022-07-10T08:17:41;1.45;;;1.45;;
73132;SDS011;61320;52.008;4.530;2022-07-10T08:20:11;1.64;;;1.64;;
73132;SDS011;61320;52.008;4.530;2022-07-10T08:22:37;1.50;;;1.50;;
73132;SDS011;61320;52.008;4.530;2022-07-10T08:25:03;1.60;;;1.60;;
73132;SDS011;61320;52.008;4.530;2022-07-10T08:27:29;1.42;;;1.42;;
73132;SDS011;61320;52.008;4.530;2022-07-10T08:29:55;1.44;;;1.44;;
73132;SDS011;61320;52.008;4.530;2022-07-10T08:32:20;1.38;;;1.38;;
73132;SDS011;61320;52.008;4.530;2022-07-10T08:34:46;1.58;;;1.58;;
73132;SDS011;61320;52.008;4.530;2022-07-10T08:37:13;1.43;;;1.43;;
73132;SDS011;61320;52.008;4.530;2022-07-10T08:39:38;1.49;;;1.49;;
73132;SDS011;61320;52.008;4.530;2022-07-10T08:42:05;1.66;;;1.61;;
73132;SDS011;61320;52.008;4.530;2022-07-10T08:44:35;1.52;;;1.52;;
73132;SDS011;61320;52.008;4.530;2022-07-10T08:47:02;1.64;;;1.63;;
73132;SDS011;61320;52.008;4.530;2022-07-10T08:49:29;1.55;;;1.47;;
73132;SDS011;61320;52.008;4.530;2022-07-10T08:51:57;1.43;;;1.38;;
73132;SDS011;61320;52.008;4.530;2022-07-10T08:54:27;1.44;;;1.44;;
73132;SDS011;61320;52.008;4.530;2022-07-10T08:56:55;1.35;;;1.33;;
73132;SDS011;61320;52.008;4.530;2022-07-10T08:59:22;1.41;;;1.36;;
73132;SDS011;61320;52.008;4.530;2022-07-10T09:01:47;1.35;;;1.29;;
73132;SDS011;61320;52.008;4.530;2022-07-10T09:04:17;1.36;;;1.32;;
73132;SDS011;61320;52.008;4.530;2022-07-10T09:06:44;1.69;;;1.56;;
73132;SDS011;61320;52.008;4.530;2022-07-10T09:09:10;1.62;;;1.48;;
73132;SDS011;61320;52.008;4.530;2022-07-10T09:11:37;1.63;;;1.48;;
73132;SDS011;61320;52.008;4.530;2022-07-10T09:14:06;1.71;;;1.57;;
73132;SDS011;61320;52.008;4.530;2022-07-10T09:16:34;1.76;;;1.60;;
73132;SDS011;61320;52.008;4.530;2022-07-10T09:21:52;1.69;;;1.56;;
73132;SDS011;61320;52.008;4.530;2022-07-10T09:24:20;1.76;;;1.64;;
73132;SDS011;61320;52.008;4.530;2022-07-10T09:29:21;1.55;;;1.49;;
73132;SDS011;61320;52.008;4.530;2022-07-10T09:31:48;1.48;;;1.48;;
73132;SDS011;61320;52.008;4.530;2022-07-10T09:40:06;1.43;;;1.42;;
73132;SDS011;61320;52.008;4.530;2022-07-10T09:42:38;1.37;;;1.35;;
73132;SDS011;61320;52.008;4.530;2022-07-10T09:47:43;1.80;;;1.77;;
73132;SDS011;61320;52.008;4.530;2022-07-10T09:50:31;1.43;;;1.43;;
73132;SDS011;61320;52.008;4.530;2022-07-10T09:53:02;1.55;;;1.53;;
73132;SDS011;61320;52.008;4.530;2022-07-10T09:55:31;1.59;;;1.59;;
73132;SDS011;61320;52.008;4.530;2022-07-10T09:57:58;1.68;;;1.68;;
73132;SDS011;61320;52.008;4.530;2022-07-10T10:00:30;1.59;;;1.59;;
73132;SDS011;61320;52.008;4.530;2022-07-10T10:03:04;1.69;;;1.69;;
73132;SDS011;61320;52.008;4.530;2022-07-10T10:08:04;1.51;;;1.50;;
73132;SDS011;61320;52.008;4.530;2022-07-10T10:10:36;1.40;;;1.38;;
73132;SDS011;61320;52.008;4.530;2022-07-10T10:13:06;1.54;;;1.43;;
73132;SDS011;61320;52.008;4.530;2022-07-10T10:15:36;1.61;;;1.50;;
73132;SDS011;61320;52.008;4.530;2022-07-10T10:18:02;1.62;;;1.57;;
73132;SDS011;61320;52.008;4.530;2022-07-10T10:20:29;1.72;;;1.62;;
73132;SDS011;61320;52.008;4.530;2022-07-10T10:23:08;1.59;;;1.50;;
73132;SDS011;61320;52.008;4.530;2022-07-10T10:25:35;1.63;;;1.53;;
73132;SDS011;61320;52.008;4.530;2022-07-10T10:28:02;1.49;;;1.40;;
73132;SDS011;61320;52.008;4.530;2022-07-10T10:30:31;1.63;;;1.54;;
73132;SDS011;61320;52.008;4.530;2022-07-10T10:32:58;1.53;;;1.52;;
73132;SDS011;61320;52.008;4.530;2022-07-10T10:35:43;1.34;;;1.34;;
73132;SDS011;61320;52.008;4.530;2022-07-10T10:38:12;1.71;;;1.71;;
73132;SDS011;61320;52.008;4.530;2022-07-10T10:40:40;1.62;;;1.61;;
73132;SDS011;61320;52.008;4.530;2022-07-10T10:43:16;1.40;;;1.38;;
73132;SDS011;61320;52.008;4.530;2022-07-10T10:45:48;1.56;;;1.56;;
73132;SDS011;61320;52.008;4.530;2022-07-10T10:48:15;1.61;;;1.61;;
73132;SDS011;61320;52.008;4.530;2022-07-10T10:50:49;1.47;;;1.47;;
73132;SDS011;61320;52.008;4.530;2022-07-10T10:53:16;1.57;;;1.57;;
73132;SDS011;61320;52.008;4.530;2022-07-10T10:58:35;1.69;;;1.69;;
73132;SDS011;61320;52.008;4.530;2022-07-10T11:01:26;1.46;;;1.46;;
73132;SDS011;61320;52.008;4.530;2022-07-10T11:06:51;1.39;;;1.36;;
73132;SDS011;61320;52.008;4.530;2022-07-10T11:09:27;1.27;;;1.27;;
73132;SDS011;61320;52.008;4.530;2022-07-10T11:12:04;1.42;;;1.42;;
73132;SDS011;61320;52.008;4.530;2022-07-10T11:14:44;1.24;;;1.24;;
73132;SDS011;61320;52.008;4.530;2022-07-10T11:17:11;1.31;;;1.31;;
73132;SDS011;61320;52.008;4.530;2022-07-10T11:19:38;1.53;;;1.53;;
73132;SDS011;61320;52.008;4.530;2022-07-10T11:28:03;1.43;;;1.43;;
73132;SDS011;61320;52.008;4.530;2022-07-10T11:33:15;1.31;;;1.31;;
73132;SDS011;61320;52.008;4.530;2022-07-10T11:35:44;1.32;;;1.32;;
73132;SDS011;61320;52.008;4.530;2022-07-10T11:38:11;1.26;;;1.26;;
73132;SDS011;61320;52.008;4.530;2022-07-10T11:40:36;1.34;;;1.34;;
73132;SDS011;61320;52.008;4.530;2022-07-10T11:43:02;1.28;;;1.28;;
73132;SDS011;61320;52.008;4.530;2022-07-10T11:45:32;1.13;;;1.13;;
73132;SDS011;61320;52.008;4.530;2022-07-10T11:48:01;1.08;;;1.08;;
73132;SDS011;61320;52.008;4.530;2022-07-10T11:50:28;1.40;;;1.39;;
73132;SDS011;61320;52.008;4.530;2022-07-10T11:53:01;1.21;;;1.21;;
73132;SDS011;61320;52.008;4.530;2022-07-10T11:55:28;1.19;;;1.19;;
73132;SDS011;61320;52.008;4.530;2022-07-10T11:57:55;1.24;;;1.24;;
73132;SDS011;61320;52.008;4.530;2022-07-10T12:00:24;1.31;;;1.31;;
73132;SDS011;61320;52.008;4.530;2022-07-10T12:02:55;1.14;;;1.14;;
73132;SDS011;61320;52.008;4.530;2022-07-10T12:05:30;1.18;;;1.18;;
73132;SDS011;61320;52.008;4.530;2022-07-10T12:08:02;1.11;;;1.11;;
73132;SDS011;61320;52.008;4.530;2022-07-10T12:10:29;1.20;;;1.20;;
73132;SDS011;61320;52.008;4.530;2022-07-10T12:13:09;1.20;;;1.20;;
73132;SDS011;61320;52.008;4.530;2022-07-10T12:15:37;1.16;;;1.16;;
73132;SDS011;61320;52.008;4.530;2022-07-10T12:18:08;1.22;;;1.22;;
73132;SDS011;61320;52.008;4.530;2022-07-10T12:20:40;1.02;;;1.02;;
73132;SDS011;61320;52.008;4.530;2022-07-10T12:23:10;1.06;;;1.06;;
73132;SDS011;61320;52.008;4.530;2022-07-10T12:25:37;1.18;;;1.18;;
73132;SDS011;61320;52.008;4.530;2022-07-10T12:28:04;1.20;;;1.20;;
73132;SDS011;61320;52.008;4.530;2022-07-10T12:30:42;1.44;;;1.44;;
73132;SDS011;61320;52.008;4.530;2022-07-10T12:33:14;1.62;;;1.62;;
73132;SDS011;61320;52.008;4.530;2022-07-10T12:35:50;1.23;;;1.23;;
73132;SDS011;61320;52.008;4.530;2022-07-10T12:38:26;1.40;;;1.40;;
73132;SDS011;61320;52.008;4.530;2022-07-10T12:43:52;1.26;;;1.26;;
73132;SDS011;61320;52.008;4.530;2022-07-10T12:46:21;1.28;;;1.28;;
73132;SDS011;61320;52.008;4.530;2022-07-10T12:53:59;1.34;;;1.34;;
73132;SDS011;61320;52.008;4.530;2022-07-10T12:56:28;1.38;;;1.38;;
73132;SDS011;61320;52.008;4.530;2022-07-10T12:59:02;1.38;;;1.38;;
73132;SDS011;61320;52.008;4.530;2022-07-10T13:01:42;1.38;;;1.38;;
73132;SDS011;61320;52.008;4.530;2022-07-10T13:04:09;1.29;;;1.29;;
73132;SDS011;61320;52.008;4.530;2022-07-10T13:06:36;1.30;;;1.30;;
73132;SDS011;61320;52.008;4.530;2022-07-10T13:09:25;1.29;;;1.29;;
73132;SDS011;61320;52.008;4.530;2022-07-10T13:11:50;1.39;;;1.39;;
73132;SDS011;61320;52.008;4.530;2022-07-10T13:14:17;1.48;;;1.48;;
73132;SDS011;61320;52.008;4.530;2022-07-10T13:16:43;1.53;;;1.53;;
73132;SDS011;61320;52.008;4.530;2022-07-10T13:19:08;1.62;;;1.62;;
73132;SDS011;61320;52.008;4.530;2022-07-10T13:21:34;1.66;;;1.66;;
73132;SDS011;61320;52.008;4.530;2022-07-10T13:24:00;1.50;;;1.50;;
73132;SDS011;61320;52.008;4.530;2022-07-10T13:26:25;1.56;;;1.56;;
73132;SDS011;61320;52.008;4.530;2022-07-10T13:28:51;1.52;;;1.52;;
73132;SDS011;61320;52.008;4.530;2022-07-10T13:31:17;1.53;;;1.53;;
73132;SDS011;61320;52.008;4.530;2022-07-10T13:33:45;1.62;;;1.62;;
73132;SDS011;61320;52.008;4.530;2022-07-10T13:36:10;1.64;;;1.64;;
73132;SDS011;61320;52.008;4.530;2022-07-10T13:38:36;1.65;;;1.65;;
73132;SDS011;61320;52.008;4.530;2022-07-10T13:41:02;1.51;;;1.51;;
73132;SDS011;61320;52.008;4.530;2022-07-10T13:43:27;1.66;;;1.66;;
73132;SDS011;61320;52.008;4.530;2022-07-10T13:45:56;1.58;;;1.58;;
73132;SDS011;61320;52.008;4.530;2022-07-10T13:48:23;1.75;;;1.75;;
73132;SDS011;61320;52.008;4.530;2022-07-10T13:50:50;1.84;;;1.84;;
73132;SDS011;61320;52.008;4.530;2022-07-10T13:53:20;1.58;;;1.58;;
73132;SDS011;61320;52.008;4.530;2022-07-10T13:55:46;1.57;;;1.57;;
73132;SDS011;61320;52.008;4.530;2022-07-10T13:58:14;1.58;;;1.58;;
73132;SDS011;61320;52.008;4.530;2022-07-10T14:00:41;1.69;;;1.69;;
73132;SDS011;61320;52.008;4.530;2022-07-10T14:03:06;1.70;;;1.70;;
73132;SDS011;61320;52.008;4.530;2022-07-10T14:05:32;1.68;;;1.68;;
73132;SDS011;61320;52.008;4.530;2022-07-10T14:07:58;1.84;;;1.84;;
73132;SDS011;61320;52.008;4.530;2022-07-10T14:10:24;1.60;;;1.60;;
73132;SDS011;61320;52.008;4.530;2022-07-10T14:12:51;1.87;;;1.87;;
73132;SDS011;61320;52.008;4.530;2022-07-10T14:15:17;1.97;;;1.97;;
73132;SDS011;61320;52.008;4.530;2022-07-10T14:17:43;1.77;;;1.77;;
73132;SDS011;61320;52.008;4.530;2022-07-10T14:20:09;1.74;;;1.74;;
73132;SDS011;61320;52.008;4.530;2022-07-10T14:22:36;1.64;;;1.64;;
73132;SDS011;61320;52.008;4.530;2022-07-10T14:25:02;1.97;;;1.97;;
73132;SDS011;61320;52.008;4.530;2022-07-10T14:27:28;2.06;;;2.06;;
73132;SDS011;61320;52.008;4.530;2022-07-10T14:29:55;1.78;;;1.78;;
73132;SDS011;61320;52.008;4.530;2022-07-10T14:32:20;1.79;;;1.79;;
73132;SDS011;61320;52.008;4.530;2022-07-10T14:34:45;1.92;;;1.92;;
73132;SDS011;61320;52.008;4.530;2022-07-10T14:37:11;1.88;;;1.88;;
73132;SDS011;61320;52.008;4.530;2022-07-10T14:39:36;1.93;;;1.93;;
73132;SDS011;61320;52.008;4.530;2022-07-10T14:42:02;2.00;;;2.00;;
73132;SDS011;61320;52.008;4.530;2022-07-10T14:44:30;2.11;;;2.11;;
73132;SDS011;61320;52.008;4.530;2022-07-10T14:46:57;1.98;;;1.98;;
73132;SDS011;61320;52.008;4.530;2022-07-10T14:49:23;1.96;;;1.96;;
73132;SDS011;61320;52.008;4.530;2022-07-10T14:51:48;2.05;;;2.05;;
73132;SDS011;61320;52.008;4.530;2022-07-10T14:54:14;1.85;;;1.85;;
73132;SDS011;61320;52.008;4.530;2022-07-10T14:56:39;2.05;;;2.05;;
73132;SDS011;61320;52.008;4.530;2022-07-10T14:59:05;1.89;;;1.89;;
73132;SDS011;61320;52.008;4.530;2022-07-10T15:01:31;1.84;;;1.84;;
73132;SDS011;61320;52.008;4.530;2022-07-10T15:03:56;1.95;;;1.95;;
73132;SDS011;61320;52.008;4.530;2022-07-10T15:06:23;2.06;;;2.06;;
73132;SDS011;61320;52.008;4.530;2022-07-10T15:08:49;2.03;;;2.03;;
73132;SDS011;61320;52.008;4.530;2022-07-10T15:11:19;2.03;;;2.03;;
73132;SDS011;61320;52.008;4.530;2022-07-10T15:13:49;2.16;;;2.16;;
73132;SDS011;61320;52.008;4.530;2022-07-10T15:16:17;1.94;;;1.94;;
73132;SDS011;61320;52.008;4.530;2022-07-10T15:18:43;2.07;;;2.07;;
73132;SDS011;61320;52.008;4.530;2022-07-10T15:21:08;2.10;;;2.10;;
73132;SDS011;61320;52.008;4.530;2022-07-10T15:23:34;2.08;;;2.08;;
73132;SDS011;61320;52.008;4.530;2022-07-10T15:25:59;2.14;;;2.14;;
73132;SDS011;61320;52.008;4.530;2022-07-10T15:28:26;2.11;;;2.11;;
73132;SDS011;61320;52.008;4.530;2022-07-10T15:30:51;2.17;;;2.17;;